sensor_id;sensor_type;location;lat;lon;timestamp;pressure;altitude;pressure_sealevel;temperature;humidity
21988;BME280;11158;53.404;-1.510;2023-03-09T00:01:43;98456.97;;;1.97;75.56
21988;BME280;11158;53.404;-1.510;2023-03-09T00:04:12;98461.50;;;2.11;73.97
21988;BME280;11158;53.404;-1.510;2023-03-09T00:06:39;98455.88;;;2.14;73.58
21988;BME280;11158;53.404;-1.510;2023-03-09T00:09:05;98460.13;;;2.53;73.18
21988;BME280;11158;53.404;-1.510;2023-03-09T00:11:31;98467.47;;;2.05;73.67
21988;BME280;11158;53.404;-1.510;2023-03-09T00:13:56;98465.72;;;2.20;72.63
21988;BME280;11158;53.404;-1.510;2023-03-09T00:16:25;98463.88;;;2.73;71.95
21988;BME280;11158;53.404;-1.510;2023-03-09T00:18:52;98474.41;;;2.44;72.67
21988;BME280;11158;53.404;-1.510;2023-03-09T00:21:19;98478.75;;;2.37;72.86
21988;BME280;11158;53.404;-1.510;2023-03-09T00:24:04;98484.50;;;2.17;73.43
21988;BME280;11158;53.404;-1.510;2023-03-09T00:26:31;98495.03;;;2.40;72.32
21988;BME280;11158;53.404;-1.510;2023-03-09T00:28:57;98493.72;;;1.98;74.04
21988;BME280;11158;53.404;-1.510;2023-03-09T00:31:22;98500.94;;;2.04;74.11
21988;BME280;11158;53.404;-1.510;2023-03-09T00:33:48;98497.25;;;2.28;72.82
21988;BME280;11158;53.404;-1.510;2023-03-09T00:36:15;98504.28;;;2.59;72.64
21988;BME280;11158;53.404;-1.510;2023-03-09T00:38:42;98501.16;;;2.56;72.20
21988;BME280;11158;53.404;-1.510;2023-03-09T00:41:09;98501.31;;;2.16;73.30
21988;BME280;11158;53.404;-1.510;2023-03-09T00:43:36;98510.31;;;2.45;73.15
21988;BME280;11158;53.404;-1.510;2023-03-09T00:46:01;98506.34;;;2.26;73.21
21988;BME280;11158;53.404;-1.510;2023-03-09T00:48:27;98508.31;;;2.09;73.77
21988;BME280;11158;53.404;-1.510;2023-03-09T00:50:52;98510.97;;;2.01;74.16
21988;BME280;11158;53.404;-1.510;2023-03-09T00:53:18;98520.75;;;2.15;74.26
21988;BME280;11158;53.404;-1.510;2023-03-09T00:55:43;98517.66;;;2.35;72.89
21988;BME280;11158;53.404;-1.510;2023-03-09T00:58:10;98503.56;;;2.42;73.45
21988;BME280;11158;53.404;-1.510;2023-03-09T01:00:36;98513.44;;;2.25;73.15
21988;BME280;11158;53.404;-1.510;2023-03-09T01:03:03;98513.53;;;2.70;72.28
21988;BME280;11158;53.404;-1.510;2023-03-09T01:05:28;98515.00;;;2.72;71.69
21988;BME280;11158;53.404;-1.510;2023-03-09T01:07:54;98503.78;;;2.56;72.18
21988;BME280;11158;53.404;-1.510;2023-03-09T01:10:20;98508.28;;;2.70;72.01
21988;BME280;11158;53.404;-1.510;2023-03-09T01:12:46;98509.75;;;2.35;72.49
21988;BME280;11158;53.404;-1.510;2023-03-09T01:15:12;98513.38;;;2.71;72.00
21988;BME280;11158;53.404;-1.510;2023-03-09T01:17:38;98519.22;;;2.44;72.37
21988;BME280;11158;53.404;-1.510;2023-03-09T01:20:05;98520.25;;;3.10;70.67
21988;BME280;11158;53.404;-1.510;2023-03-09T01:22:31;98525.78;;;3.15;71.32
21988;BME280;11158;53.404;-1.510;2023-03-09T01:24:57;98536.84;;;2.81;71.90
21988;BME280;11158;53.404;-1.510;2023-03-09T01:27:22;98530.03;;;2.72;71.73
21988;BME280;11158;53.404;-1.510;2023-03-09T01:29:48;98543.50;;;2.77;71.86
21988;BME280;11158;53.404;-1.510;2023-03-09T01:32:13;98540.88;;;2.92;70.59
21988;BME280;11158;53.404;-1.510;2023-03-09T01:34:39;98538.25;;;2.92;71.14
21988;BME280;11158;53.404;-1.510;2023-03-09T01:37:05;98536.69;;;2.83;70.92
21988;BME280;11158;53.404;-1.510;2023-03-09T01:39:30;98536.63;;;3.06;70.83
21988;BME280;11158;53.404;-1.510;2023-03-09T01:41:56;98535.09;;;2.59;72.30
21988;BME280;11158;53.404;-1.510;2023-03-09T01:44:22;98530.69;;;3.04;70.43
21988;BME280;11158;53.404;-1.510;2023-03-09T01:46:51;98536.34;;;3.15;70.31
21988;BME280;11158;53.404;-1.510;2023-03-09T01:54:47;98524.34;;;3.28;69.91
21988;BME280;11158;53.404;-1.510;2023-03-09T01:57:32;98535.78;;;3.65;68.39
21988;BME280;11158;53.404;-1.510;2023-03-09T02:00:07;98533.78;;;3.67;67.95
21988;BME280;11158;53.404;-1.510;2023-03-09T02:02:37;98529.22;;;4.18;66.79
21988;BME280;11158;53.404;-1.510;2023-03-09T02:05:07;98528.69;;;3.21;69.53
21988;BME280;11158;53.404;-1.510;2023-03-09T02:07:37;98524.13;;;2.85;70.82
21988;BME280;11158;53.404;-1.510;2023-03-09T02:10:10;98531.41;;;3.27;69.35
21988;BME280;11158;53.404;-1.510;2023-03-09T02:12:39;98528.31;;;3.09;70.26
21988;BME280;11158;53.404;-1.510;2023-03-09T02:15:06;98524.78;;;3.46;69.36
21988;BME280;11158;53.404;-1.510;2023-03-09T02:17:32;98521.50;;;3.44;68.28
21988;BME280;11158;53.404;-1.510;2023-03-09T02:20:19;98520.75;;;2.76;71.27
21988;BME280;11158;53.404;-1.510;2023-03-09T02:22:47;98519.34;;;4.27;67.57
21988;BME280;11158;53.404;-1.510;2023-03-09T02:25:25;98522.81;;;3.55;68.51
21988;BME280;11158;53.404;-1.510;2023-03-09T02:27:54;98528.41;;;3.96;66.65
21988;BME280;11158;53.404;-1.510;2023-03-09T02:30:20;98530.41;;;3.58;67.90
21988;BME280;11158;53.404;-1.510;2023-03-09T02:32:47;98518.72;;;4.04;67.82
21988;BME280;11158;53.404;-1.510;2023-03-09T02:35:12;98519.28;;;3.48;67.33
21988;BME280;11158;53.404;-1.510;2023-03-09T02:37:39;98518.66;;;3.46;68.69
21988;BME280;11158;53.404;-1.510;2023-03-09T02:40:21;98528.44;;;3.82;67.83
21988;BME280;11158;53.404;-1.510;2023-03-09T02:42:49;98531.34;;;3.06;69.18
21988;BME280;11158;53.404;-1.510;2023-03-09T02:45:17;98532.31;;;3.64;68.29
21988;BME280;11158;53.404;-1.510;2023-03-09T02:47:44;98538.03;;;3.83;66.81
21988;BME280;11158;53.404;-1.510;2023-03-09T02:50:11;98541.09;;;3.35;68.10
21988;BME280;11158;53.404;-1.510;2023-03-09T02:52:37;98544.09;;;3.17;68.06
21988;BME280;11158;53.404;-1.510;2023-03-09T02:55:04;98541.53;;;3.53;66.91
21988;BME280;11158;53.404;-1.510;2023-03-09T02:57:29;98543.50;;;4.03;66.74
21988;BME280;11158;53.404;-1.510;2023-03-09T02:59:55;98545.66;;;3.77;66.13
21988;BME280;11158;53.404;-1.510;2023-03-09T03:02:20;98538.34;;;3.43;68.32
21988;BME280;11158;53.404;-1.510;2023-03-09T03:04:46;98533.91;;;3.80;67.50
21988;BME280;11158;53.404;-1.510;2023-03-09T03:07:11;98532.41;;;3.41;68.18
21988;BME280;11158;53.404;-1.510;2023-03-09T03:09:37;98532.09;;;3.81;67.46
21988;BME280;11158;53.404;-1.510;2023-03-09T03:12:03;98531.47;;;3.64;66.45
21988;BME280;11158;53.404;-1.510;2023-03-09T03:14:28;98531.72;;;4.05;66.97
21988;BME280;11158;53.404;-1.510;2023-03-09T03:16:54;98529.47;;;4.24;64.91
21988;BME280;11158;53.404;-1.510;2023-03-09T03:19:21;98534.81;;;4.30;66.27
21988;BME280;11158;53.404;-1.510;2023-03-09T03:21:47;98532.56;;;3.69;66.65
21988;BME280;11158;53.404;-1.510;2023-03-09T03:24:15;98532.19;;;4.30;66.16
21988;BME280;11158;53.404;-1.510;2023-03-09T03:26:41;98539.69;;;3.54;66.79
21988;BME280;11158;53.404;-1.510;2023-03-09T03:29:06;98536.75;;;3.64;67.03
21988;BME280;11158;53.404;-1.510;2023-03-09T03:31:33;98545.50;;;3.79;66.37
21988;BME280;11158;53.404;-1.510;2023-03-09T03:33:58;98549.97;;;3.78;65.59
21988;BME280;11158;53.404;-1.510;2023-03-09T03:36:24;98547.88;;;3.74;66.00
21988;BME280;11158;53.404;-1.510;2023-03-09T03:38:50;98545.56;;;3.05;68.94
21988;BME280;11158;53.404;-1.510;2023-03-09T03:41:16;98547.28;;;3.12;68.48
21988;BME280;11158;53.404;-1.510;2023-03-09T03:43:41;98532.69;;;3.31;68.12
21988;BME280;11158;53.404;-1.510;2023-03-09T03:46:07;98535.91;;;3.12;68.34
21988;BME280;11158;53.404;-1.510;2023-03-09T03:48:33;98528.88;;;2.89;69.56
21988;BME280;11158;53.404;-1.510;2023-03-09T03:50:58;98537.75;;;2.73;70.23
21988;BME280;11158;53.404;-1.510;2023-03-09T03:53:24;98540.09;;;3.21;69.24
21988;BME280;11158;53.404;-1.510;2023-03-09T03:55:49;98543.63;;;3.13;68.88
21988;BME280;11158;53.404;-1.510;2023-03-09T03:58:15;98552.53;;;2.98;69.08
21988;BME280;11158;53.404;-1.510;2023-03-09T04:00:40;98559.47;;;3.43;68.13
21988;BME280;11158;53.404;-1.510;2023-03-09T04:03:06;98561.53;;;4.14;66.13
21988;BME280;11158;53.404;-1.510;2023-03-09T04:05:32;98553.06;;;3.67;66.67
21988;BME280;11158;53.404;-1.510;2023-03-09T04:07:57;98554.84;;;3.96;65.94
21988;BME280;11158;53.404;-1.510;2023-03-09T04:10:23;98561.00;;;3.52;66.89
21988;BME280;11158;53.404;-1.510;2023-03-09T04:12:50;98559.47;;;3.58;66.63
21988;BME280;11158;53.404;-1.510;2023-03-09T04:15:16;98554.41;;;4.57;63.41
21988;BME280;11158;53.404;-1.510;2023-03-09T04:17:41;98561.00;;;3.67;66.32
21988;BME280;11158;53.404;-1.510;2023-03-09T04:20:08;98564.94;;;4.08;65.65
21988;BME280;11158;53.404;-1.510;2023-03-09T04:22:34;98557.38;;;4.48;63.68
21988;BME280;11158;53.404;-1.510;2023-03-09T04:24:59;98562.53;;;4.34;65.58
21988;BME280;11158;53.404;-1.510;2023-03-09T04:27:25;98574.25;;;4.25;64.58
21988;BME280;11158;53.404;-1.510;2023-03-09T04:29:50;98573.63;;;4.23;65.55
21988;BME280;11158;53.404;-1.510;2023-03-09T04:32:16;98565.81;;;4.36;63.71
21988;BME280;11158;53.404;-1.510;2023-03-09T04:34:41;98574.03;;;4.05;64.42
21988;BME280;11158;53.404;-1.510;2023-03-09T04:37:07;98573.03;;;3.55;66.29
21988;BME280;11158;53.404;-1.510;2023-03-09T04:39:33;98578.22;;;3.63;66.08
21988;BME280;11158;53.404;-1.510;2023-03-09T04:41:58;98575.03;;;3.83;65.61
21988;BME280;11158;53.404;-1.510;2023-03-09T04:44:24;98576.66;;;3.84;64.86
21988;BME280;11158;53.404;-1.510;2023-03-09T04:46:49;98573.84;;;3.85;65.40
21988;BME280;11158;53.404;-1.510;2023-03-09T04:49:15;98571.25;;;3.26;67.77
21988;BME280;11158;53.404;-1.510;2023-03-09T04:51:40;98579.59;;;3.59;65.78
21988;BME280;11158;53.404;-1.510;2023-03-09T04:54:06;98576.66;;;4.20;64.09
21988;BME280;11158;53.404;-1.510;2023-03-09T04:56:31;98574.63;;;3.34;66.42
21988;BME280;11158;53.404;-1.510;2023-03-09T04:58:57;98580.78;;;3.56;66.22
21988;BME280;11158;53.404;-1.510;2023-03-09T05:01:22;98581.78;;;2.96;67.57
21988;BME280;11158;53.404;-1.510;2023-03-09T05:03:48;98573.22;;;3.09;67.47
21988;BME280;11158;53.404;-1.510;2023-03-09T05:06:13;98571.56;;;3.23;67.67
21988;BME280;11158;53.404;-1.510;2023-03-09T05:08:39;98585.19;;;2.82;69.28
21988;BME280;11158;53.404;-1.510;2023-03-09T05:11:05;98582.53;;;2.82;68.35
21988;BME280;11158;53.404;-1.510;2023-03-09T05:13:30;98572.66;;;3.13;68.05
21988;BME280;11158;53.404;-1.510;2023-03-09T05:15:56;98575.25;;;2.69;69.18
21988;BME280;11158;53.404;-1.510;2023-03-09T05:18:21;98571.09;;;3.04;68.19
21988;BME280;11158;53.404;-1.510;2023-03-09T05:20:47;98577.09;;;2.83;68.21
21988;BME280;11158;53.404;-1.510;2023-03-09T05:23:13;98579.19;;;2.88;69.11
21988;BME280;11158;53.404;-1.510;2023-03-09T05:25:38;98578.63;;;2.78;69.45
21988;BME280;11158;53.404;-1.510;2023-03-09T05:28:04;98571.97;;;3.34;67.22
21988;BME280;11158;53.404;-1.510;2023-03-09T05:30:30;98577.59;;;3.76;66.31
21988;BME280;11158;53.404;-1.510;2023-03-09T05:32:56;98579.34;;;3.69;65.89
21988;BME280;11158;53.404;-1.510;2023-03-09T05:35:22;98580.16;;;3.54;67.02
21988;BME280;11158;53.404;-1.510;2023-03-09T05:37:47;98581.16;;;2.71;69.02
21988;BME280;11158;53.404;-1.510;2023-03-09T05:40:14;98592.78;;;2.62;69.93
21988;BME280;11158;53.404;-1.510;2023-03-09T05:42:40;98573.53;;;2.76;69.18
21988;BME280;11158;53.404;-1.510;2023-03-09T05:45:07;98576.66;;;2.80;69.09
21988;BME280;11158;53.404;-1.510;2023-03-09T05:47:35;98576.34;;;2.75;69.56
21988;BME280;11158;53.404;-1.510;2023-03-09T05:50:00;98575.06;;;3.23;68.55
21988;BME280;11158;53.404;-1.510;2023-03-09T05:52:26;98578.84;;;2.91;69.21
21988;BME280;11158;53.404;-1.510;2023-03-09T05:54:52;98578.63;;;3.30;68.72
21988;BME280;11158;53.404;-1.510;2023-03-09T05:57:18;98573.44;;;3.37;67.76
21988;BME280;11158;53.404;-1.510;2023-03-09T05:59:43;98571.69;;;2.77;69.36
21988;BME280;11158;53.404;-1.510;2023-03-09T06:02:09;98572.44;;;2.70;70.14
21988;BME280;11158;53.404;-1.510;2023-03-09T06:04:34;98581.81;;;2.88;69.47
21988;BME280;11158;53.404;-1.510;2023-03-09T06:07:00;98579.41;;;2.63;70.09
21988;BME280;11158;53.404;-1.510;2023-03-09T06:09:26;98585.72;;;2.54;70.44
21988;BME280;11158;53.404;-1.510;2023-03-09T06:11:52;98580.25;;;2.41;70.34
21988;BME280;11158;53.404;-1.510;2023-03-09T06:14:17;98575.84;;;2.33;71.37
21988;BME280;11158;53.404;-1.510;2023-03-09T06:16:43;98565.91;;;2.58;69.97
21988;BME280;11158;53.404;-1.510;2023-03-09T06:19:09;98563.56;;;2.63;70.39
21988;BME280;11158;53.404;-1.510;2023-03-09T06:21:35;98566.50;;;2.68;69.76
21988;BME280;11158;53.404;-1.510;2023-03-09T06:24:00;98571.75;;;2.30;71.08
21988;BME280;11158;53.404;-1.510;2023-03-09T06:26:26;98568.31;;;2.68;70.25
21988;BME280;11158;53.404;-1.510;2023-03-09T06:28:52;98576.16;;;2.61;70.79
21988;BME280;11158;53.404;-1.510;2023-03-09T06:31:18;98578.06;;;2.21;71.63
21988;BME280;11158;53.404;-1.510;2023-03-09T06:33:45;98574.31;;;2.62;70.38
21988;BME280;11158;53.404;-1.510;2023-03-09T06:36:16;98573.47;;;2.84;70.35
21988;BME280;11158;53.404;-1.510;2023-03-09T06:38:42;98579.59;;;2.16;71.95
21988;BME280;11158;53.404;-1.510;2023-03-09T06:41:08;98573.09;;;2.26;71.70
21988;BME280;11158;53.404;-1.510;2023-03-09T06:43:34;98580.47;;;2.54;70.64
21988;BME280;11158;53.404;-1.510;2023-03-09T06:46:00;98578.13;;;2.59;69.88
21988;BME280;11158;53.404;-1.510;2023-03-09T06:48:25;98582.75;;;2.57;71.45
21988;BME280;11158;53.404;-1.510;2023-03-09T06:50:51;98586.31;;;2.64;70.58
21988;BME280;11158;53.404;-1.510;2023-03-09T06:53:17;98587.53;;;2.39;71.57
21988;BME280;11158;53.404;-1.510;2023-03-09T06:55:42;98585.16;;;2.44;71.24
21988;BME280;11158;53.404;-1.510;2023-03-09T06:58:08;98585.56;;;2.09;72.34
21988;BME280;11158;53.404;-1.510;2023-03-09T07:00:35;98603.25;;;2.70;71.17
21988;BME280;11158;53.404;-1.510;2023-03-09T07:03:07;98587.47;;;2.85;71.14
21988;BME280;11158;53.404;-1.510;2023-03-09T07:05:34;98589.63;;;2.20;71.73
21988;BME280;11158;53.404;-1.510;2023-03-09T07:08:00;98595.44;;;2.39;71.13
21988;BME280;11158;53.404;-1.510;2023-03-09T07:10:25;98591.09;;;2.84;69.09
21988;BME280;11158;53.404;-1.510;2023-03-09T07:12:51;98596.06;;;2.41;71.32
21988;BME280;11158;53.404;-1.510;2023-03-09T07:15:16;98594.28;;;2.10;72.02
21988;BME280;11158;53.404;-1.510;2023-03-09T07:17:42;98590.19;;;2.54;72.12
21988;BME280;11158;53.404;-1.510;2023-03-09T07:20:09;98583.28;;;2.06;72.57
21988;BME280;11158;53.404;-1.510;2023-03-09T07:22:35;98590.81;;;2.41;71.13
21988;BME280;11158;53.404;-1.510;2023-03-09T07:25:01;98594.81;;;2.51;71.46
21988;BME280;11158;53.404;-1.510;2023-03-09T07:27:27;98593.63;;;2.08;71.78
21988;BME280;11158;53.404;-1.510;2023-03-09T07:29:52;98592.41;;;2.19;72.29
21988;BME280;11158;53.404;-1.510;2023-03-09T07:32:18;98588.06;;;2.03;73.27
21988;BME280;11158;53.404;-1.510;2023-03-09T07:34:43;98589.94;;;2.17;72.26
21988;BME280;11158;53.404;-1.510;2023-03-09T07:37:09;98596.94;;;2.56;71.62
21988;BME280;11158;53.404;-1.510;2023-03-09T07:39:35;98595.34;;;2.47;71.75
21988;BME280;11158;53.404;-1.510;2023-03-09T07:42:01;98600.34;;;2.42;72.14
21988;BME280;11158;53.404;-1.510;2023-03-09T07:44:28;98595.47;;;2.30;72.32
21988;BME280;11158;53.404;-1.510;2023-03-09T07:46:53;98595.13;;;2.34;71.65
21988;BME280;11158;53.404;-1.510;2023-03-09T07:49:20;98596.88;;;2.41;71.31
21988;BME280;11158;53.404;-1.510;2023-03-09T07:51:46;98599.13;;;2.29;72.83
21988;BME280;11158;53.404;-1.510;2023-03-09T07:54:12;98610.78;;;2.35;73.23
21988;BME280;11158;53.404;-1.510;2023-03-09T07:56:37;98621.22;;;1.97;73.59
21988;BME280;11158;53.404;-1.510;2023-03-09T07:59:03;98619.78;;;2.18;72.87
21988;BME280;11158;53.404;-1.510;2023-03-09T08:01:32;98615.47;;;2.25;73.34
21988;BME280;11158;53.404;-1.510;2023-03-09T08:03:58;98619.03;;;2.32;72.75
21988;BME280;11158;53.404;-1.510;2023-03-09T08:06:23;98619.63;;;2.42;72.04
21988;BME280;11158;53.404;-1.510;2023-03-09T08:08:50;98619.59;;;2.19;73.49
21988;BME280;11158;53.404;-1.510;2023-03-09T08:11:16;98632.44;;;2.22;73.69
21988;BME280;11158;53.404;-1.510;2023-03-09T08:13:44;98619.81;;;2.41;72.22
21988;BME280;11158;53.404;-1.510;2023-03-09T08:16:10;98629.59;;;2.32;73.01
21988;BME280;11158;53.404;-1.510;2023-03-09T08:18:36;98627.59;;;2.34;73.33
21988;BME280;11158;53.404;-1.510;2023-03-09T08:21:06;98620.06;;;2.00;74.18
21988;BME280;11158;53.404;-1.510;2023-03-09T08:23:34;98620.47;;;2.43;73.05
21988;BME280;11158;53.404;-1.510;2023-03-09T08:26:01;98625.44;;;2.06;74.43
21988;BME280;11158;53.404;-1.510;2023-03-09T08:28:26;98616.41;;;2.01;74.92
21988;BME280;11158;53.404;-1.510;2023-03-09T08:30:52;98612.56;;;2.43;73.85
21988;BME280;11158;53.404;-1.510;2023-03-09T08:33:17;98607.19;;;2.51;73.37
21988;BME280;11158;53.404;-1.510;2023-03-09T08:35:43;98605.09;;;2.23;74.29
21988;BME280;11158;53.404;-1.510;2023-03-09T08:38:09;98605.06;;;2.00;75.34
21988;BME280;11158;53.404;-1.510;2023-03-09T08:40:36;98583.41;;;2.13;75.08
21988;BME280;11158;53.404;-1.510;2023-03-09T08:43:02;98591.78;;;1.85;76.15
21988;BME280;11158;53.404;-1.510;2023-03-09T08:45:27;98585.19;;;2.13;75.71
21988;BME280;11158;53.404;-1.510;2023-03-09T08:47:53;98576.44;;;2.20;75.17
21988;BME280;11158;53.404;-1.510;2023-03-09T08:50:18;98584.44;;;1.73;76.53
21988;BME280;11158;53.404;-1.510;2023-03-09T08:52:44;98565.16;;;2.26;74.82
21988;BME280;11158;53.404;-1.510;2023-03-09T08:55:10;98577.16;;;2.06;75.31
21988;BME280;11158;53.404;-1.510;2023-03-09T08:57:36;98572.94;;;1.97;75.92
21988;BME280;11158;53.404;-1.510;2023-03-09T09:00:04;98568.16;;;2.23;75.13
21988;BME280;11158;53.404;-1.510;2023-03-09T09:02:30;98567.47;;;2.06;75.72
21988;BME280;11158;53.404;-1.510;2023-03-09T09:04:55;98573.59;;;2.22;74.50
21988;BME280;11158;53.404;-1.510;2023-03-09T09:07:24;98580.44;;;2.08;75.59
21988;BME280;11158;53.404;-1.510;2023-03-09T09:09:49;98584.53;;;2.42;74.48
21988;BME280;11158;53.404;-1.510;2023-03-09T09:12:15;98580.81;;;2.05;75.20
21988;BME280;11158;53.404;-1.510;2023-03-09T09:14:41;98590.50;;;1.81;77.11
21988;BME280;11158;53.404;-1.510;2023-03-09T09:17:08;98586.63;;;2.23;75.47
21988;BME280;11158;53.404;-1.510;2023-03-09T09:19:37;98588.19;;;2.09;75.69
21988;BME280;11158;53.404;-1.510;2023-03-09T09:22:04;98578.97;;;2.37;74.47
21988;BME280;11158;53.404;-1.510;2023-03-09T09:24:31;98584.66;;;2.63;73.75
21988;BME280;11158;53.404;-1.510;2023-03-09T09:26:58;98584.25;;;2.75;73.02
21988;BME280;11158;53.404;-1.510;2023-03-09T09:29:23;98580.09;;;2.80;72.79
21988;BME280;11158;53.404;-1.510;2023-03-09T09:31:49;98581.13;;;2.33;74.91
21988;BME280;11158;53.404;-1.510;2023-03-09T09:34:14;98576.13;;;2.38;74.46
21988;BME280;11158;53.404;-1.510;2023-03-09T09:36:43;98582.00;;;2.48;74.80
21988;BME280;11158;53.404;-1.510;2023-03-09T09:39:11;98585.94;;;2.53;74.66
21988;BME280;11158;53.404;-1.510;2023-03-09T09:42:11;98585.84;;;2.38;75.61
21988;BME280;11158;53.404;-1.510;2023-03-09T09:44:45;98581.63;;;2.28;75.69
21988;BME280;11158;53.404;-1.510;2023-03-09T09:47:17;98581.75;;;2.35;75.27
21988;BME280;11158;53.404;-1.510;2023-03-09T09:49:47;98580.03;;;2.65;74.40
21988;BME280;11158;53.404;-1.510;2023-03-09T09:58:01;98578.13;;;2.59;74.60
21988;BME280;11158;53.404;-1.510;2023-03-09T10:00:40;98576.56;;;2.88;73.24
21988;BME280;11158;53.404;-1.510;2023-03-09T10:03:25;98578.03;;;3.05;72.89
21988;BME280;11158;53.404;-1.510;2023-03-09T10:05:59;98569.66;;;2.87;73.39
21988;BME280;11158;53.404;-1.510;2023-03-09T10:08:59;98569.53;;;2.80;73.98
21988;BME280;11158;53.404;-1.510;2023-03-09T10:11:43;98563.94;;;3.58;70.63
21988;BME280;11158;53.404;-1.510;2023-03-09T10:16:48;98562.38;;;2.89;73.01
21988;BME280;11158;53.404;-1.510;2023-03-09T10:19:23;98559.47;;;3.13;72.63
21988;BME280;11158;53.404;-1.510;2023-03-09T10:21:56;98564.03;;;3.20;71.75
21988;BME280;11158;53.404;-1.510;2023-03-09T10:24:36;98572.41;;;3.38;71.81
21988;BME280;11158;53.404;-1.510;2023-03-09T10:27:10;98568.22;;;3.14;72.01
21988;BME280;11158;53.404;-1.510;2023-03-09T10:29:50;98555.91;;;2.91;73.46
21988;BME280;11158;53.404;-1.510;2023-03-09T10:35:26;98555.66;;;3.01;73.21
21988;BME280;11158;53.404;-1.510;2023-03-09T10:37:54;98557.56;;;3.37;72.09
21988;BME280;11158;53.404;-1.510;2023-03-09T10:40:40;98539.88;;;3.67;71.61
21988;BME280;11158;53.404;-1.510;2023-03-09T10:43:21;98534.44;;;3.09;72.56
21988;BME280;11158;53.404;-1.510;2023-03-09T10:45:48;98536.50;;;3.73;71.24
21988;BME280;11158;53.404;-1.510;2023-03-09T10:48:23;98532.78;;;3.08;72.65
21988;BME280;11158;53.404;-1.510;2023-03-09T10:53:23;98542.94;;;2.67;73.93
21988;BME280;11158;53.404;-1.510;2023-03-09T10:55:53;98549.00;;;3.05;72.64
21988;BME280;11158;53.404;-1.510;2023-03-09T10:58:21;98537.97;;;3.02;73.46
21988;BME280;11158;53.404;-1.510;2023-03-09T11:00:50;98544.34;;;2.92;73.44
21988;BME280;11158;53.404;-1.510;2023-03-09T11:03:22;98548.22;;;2.67;73.51
21988;BME280;11158;53.404;-1.510;2023-03-09T11:05:48;98547.75;;;2.63;74.13
21988;BME280;11158;53.404;-1.510;2023-03-09T11:08:25;98544.38;;;3.07;72.70
21988;BME280;11158;53.404;-1.510;2023-03-09T11:11:23;98548.53;;;2.87;72.70
21988;BME280;11158;53.404;-1.510;2023-03-09T11:13:51;98546.72;;;3.02;72.79
21988;BME280;11158;53.404;-1.510;2023-03-09T11:16:31;98550.38;;;3.01;73.81
21988;BME280;11158;53.404;-1.510;2023-03-09T11:19:16;98549.06;;;2.82;73.97
21988;BME280;11158;53.404;-1.510;2023-03-09T11:22:06;98561.72;;;2.87;73.36
21988;BME280;11158;53.404;-1.510;2023-03-09T11:24:45;98563.44;;;2.80;73.65
21988;BME280;11158;53.404;-1.510;2023-03-09T11:32:30;98556.19;;;2.59;74.41
21988;BME280;11158;53.404;-1.510;2023-03-09T11:34:55;98554.22;;;2.38;74.59
21988;BME280;11158;53.404;-1.510;2023-03-09T11:37:23;98566.09;;;2.10;75.88
21988;BME280;11158;53.404;-1.510;2023-03-09T11:42:36;98552.34;;;2.23;75.11
21988;BME280;11158;53.404;-1.510;2023-03-09T11:45:24;98547.47;;;2.58;75.61
21988;BME280;11158;53.404;-1.510;2023-03-09T11:50:26;98539.94;;;2.70;74.18
21988;BME280;11158;53.404;-1.510;2023-03-09T11:52:59;98539.94;;;2.70;74.24
21988;BME280;11158;53.404;-1.510;2023-03-09T11:55:42;98544.38;;;2.55;74.91
21988;BME280;11158;53.404;-1.510;2023-03-09T11:58:14;98551.50;;;2.69;75.00
21988;BME280;11158;53.404;-1.510;2023-03-09T12:00:49;98549.56;;;2.63;74.57
21988;BME280;11158;53.404;-1.510;2023-03-09T12:03:17;98541.34;;;2.43;76.32
21988;BME280;11158;53.404;-1.510;2023-03-09T12:05:54;98543.75;;;2.29;76.00
21988;BME280;11158;53.404;-1.510;2023-03-09T12:11:12;98532.69;;;2.11;76.48
21988;BME280;11158;53.404;-1.510;2023-03-09T12:14:03;98535.59;;;2.16;76.52
21988;BME280;11158;53.404;-1.510;2023-03-09T12:16:36;98523.91;;;2.34;77.03
21988;BME280;11158;53.404;-1.510;2023-03-09T12:19:22;98522.84;;;2.81;74.44
21988;BME280;11158;53.404;-1.510;2023-03-09T12:22:17;98510.88;;;1.94;77.40
21988;BME280;11158;53.404;-1.510;2023-03-09T12:24:54;98503.13;;;2.39;76.40
21988;BME280;11158;53.404;-1.510;2023-03-09T12:27:22;98513.16;;;2.20;77.17
21988;BME280;11158;53.404;-1.510;2023-03-09T12:29:51;98518.84;;;3.00;74.88
21988;BME280;11158;53.404;-1.510;2023-03-09T12:34:59;98496.69;;;2.18;77.06
21988;BME280;11158;53.404;-1.510;2023-03-09T12:42:43;98456.97;;;2.20;77.06
21988;BME280;11158;53.404;-1.510;2023-03-09T12:51:18;98471.88;;;2.50;74.72
21988;BME280;11158;53.404;-1.510;2023-03-09T12:54:01;98467.78;;;2.92;74.11
21988;BME280;11158;53.404;-1.510;2023-03-09T12:56:31;98460.75;;;2.02;76.48
21988;BME280;11158;53.404;-1.510;2023-03-09T12:58:59;98452.34;;;2.89;74.79
21988;BME280;11158;53.404;-1.510;2023-03-09T13:04:14;98441.19;;;2.49;75.51
21988;BME280;11158;53.404;-1.510;2023-03-09T13:06:54;98433.28;;;3.24;74.38
21988;BME280;11158;53.404;-1.510;2023-03-09T13:09:35;98435.53;;;3.27;73.38
21988;BME280;11158;53.404;-1.510;2023-03-09T13:12:28;98436.69;;;2.88;74.65
21988;BME280;11158;53.404;-1.510;2023-03-09T13:15:26;98436.50;;;2.60;75.91
21988;BME280;11158;53.404;-1.510;2023-03-09T13:18:04;98436.22;;;2.69;75.30
21988;BME280;11158;53.404;-1.510;2023-03-09T13:20:37;98422.13;;;2.47;75.92
21988;BME280;11158;53.404;-1.510;2023-03-09T13:23:11;98416.44;;;2.36;76.61
21988;BME280;11158;53.404;-1.510;2023-03-09T13:25:56;98407.56;;;1.99;77.53
21988;BME280;11158;53.404;-1.510;2023-03-09T13:28:41;98422.56;;;2.51;77.40
21988;BME280;11158;53.404;-1.510;2023-03-09T13:31:24;98416.09;;;2.54;76.12
21988;BME280;11158;53.404;-1.510;2023-03-09T13:33:52;98416.38;;;2.59;76.27
21988;BME280;11158;53.404;-1.510;2023-03-09T13:36:21;98422.38;;;2.38;76.90
21988;BME280;11158;53.404;-1.510;2023-03-09T13:39:02;98421.34;;;2.24;76.66
21988;BME280;11158;53.404;-1.510;2023-03-09T13:41:31;98415.38;;;2.75;76.01
21988;BME280;11158;53.404;-1.510;2023-03-09T13:43:58;98414.84;;;2.94;74.97
21988;BME280;11158;53.404;-1.510;2023-03-09T13:46:31;98411.22;;;2.80;75.44
21988;BME280;11158;53.404;-1.510;2023-03-09T13:49:01;98405.66;;;2.45;76.32
21988;BME280;11158;53.404;-1.510;2023-03-09T13:54:01;98377.00;;;2.72;75.32
21988;BME280;11158;53.404;-1.510;2023-03-09T13:56:26;98385.16;;;2.18;77.34
21988;BME280;11158;53.404;-1.510;2023-03-09T13:58:54;98390.34;;;2.26;77.12
21988;BME280;11158;53.404;-1.510;2023-03-09T14:01:27;98385.91;;;2.86;75.32